San Lorenzo, CA

7:45 PM PDT on August 27, 2016 (GMT -0700)
Hayward Executive | | Change Station

Elev 46 ft 37.66 °N, 122.12 °W | Updated 51 minutes ago

Clear
Clear
66 °F
Feels Like 66 °F
N
16
Wind Variable Wind from NW

Today
High -- | Low -- °F
--% Chance of Precip.
Yesterday
High -- | Low -- °F
Precip. -- in
Pressure 30.01 in
Visibility 10.0 miles
Clouds Clear
Dew Point 52 °F
Humidity 60%
Rainfall 0.00 in
Snow Depth Not available.
6:34 AM 7:43 PM
Waning Crescent, 19% visible
METAR KHWD 280154Z 31014KT 10SM CLR 19/11 A2998 RMK AO2 SLP160 T01890111
Pressure 30.01 in
Visibility 10.0 miles
Clouds Clear
Dew Point 52 °F
Humidity 60%
Rainfall 0.00 in
Snow Depth Not available.
6:34 AM 7:43 PM
Waning Crescent, 19% visible
METAR KHWD 280154Z 31014KT 10SM CLR 19/11 A2998 RMK AO2 SLP160 T01890111

10-Day Weather Forecast

Almanac

Astronomy

Aug. 27, 2016 Rise Set
Actual Time
Civil Twilight
Nautical Twilight
Astronomical Twilight
Moon
Length of Visible Light
Length of Day
Tomorrow will be .
, % of the Moon is Illuminated

Today's Extremes

State Highs State Lows

Community

WunderPhotos

Upload Photos

1,935,505 photos uploaded!

WunderBlog® & News

Nearby

Air Quality

  Air Quality AQ Index Pollutant
Not available.

Snow Depth

Station Depth Elevation

Earthquake Activity

City Distance Mag. Time & Date
Minimum magnitude displayed is 2.5.

Coastal Water Temperatures

Place Temperature

Stations

Nearby Weather Stations

Station Location Temp. Windchill Dew Point Humidity Wind Precip. Elev Updated Type
                   

Watches & Warnings

There are currently no watches in effect.